Time;durP1;ratioP1;P1;durP2;ratioP2;P2;SDS_P1;SDS_P2;PMS_P1;PMS_P2;Temp;Humidity;BMP_temperature;BMP_pressure;BME280_temperature;BME280_humidity;BME280_pressure;Samples;Min_cycle;Max_cycle;Signal;HPM_P1;HPM_P2
2023/03/09 08:41:14;;;;;;;12.75;8.30;;;16.40;50.60;;;;;;4985362;28;45442;-71
2023/03/09 10:38:15;;;;;;;4.68;3.35;;;16.20;52.70;;;;;;5005313;28;45806;-79
2023/03/09 10:40:46;;;;;;;7.63;3.30;;;16.20;53.20;;;;;;4989929;28;45232;-78
2023/03/09 10:43:18;;;;;;;6.05;3.00;;;16.20;53.20;;;;;;4986418;28;45240;-78
2023/03/09 10:45:44;;;;;;;7.40;3.40;;;16.20;52.90;;;;;;4988170;28;45121;-78
2023/03/09 10:48:20;;;;;;;4.38;3.03;;;16.20;52.90;;;;;;4989618;28;46989;-78
2023/03/09 10:50:57;;;;;;;6.03;3.13;;;16.20;52.80;;;;;;4986919;28;45347;-77
2023/03/09 10:53:27;;;;;;;5.55;3.30;;;16.20;52.90;;;;;;4989787;28;45381;-78
2023/03/09 10:55:59;;;;;;;7.13;2.90;;;16.20;53.00;;;;;;4989734;28;45461;-78
2023/03/09 10:58:26;;;;;;;7.57;3.20;;;16.20;53.00;;;;;;4989494;28;48244;-78
2023/03/09 11:01:02;;;;;;;7.93;3.30;;;16.20;52.90;;;;;;4989399;28;45131;-78
2023/03/09 11:03:38;;;;;;;6.22;3.42;;;16.20;52.90;;;;;;4989623;28;45248;-78
2023/03/09 11:06:29;;;;;;;4.22;2.95;;;16.20;52.90;;;;;;4989691;28;45256;-78
2023/03/09 11:09:00;;;;;;;5.90;3.03;;;16.20;53.00;;;;;;4989588;28;47383;-77
2023/03/09 11:11:29;;;;;;;5.55;3.00;;;16.20;53.00;;;;;;4989645;28;45249;-77
2023/03/09 11:13:56;;;;;;;5.00;3.03;;;16.20;53.00;;;;;;4989457;28;45373;-77
2023/03/09 11:16:27;;;;;;;4.55;2.90;;;16.20;54.30;;;;;;4989429;28;45569;-78
2023/03/09 11:19:21;;;;;;;7.20;3.00;;;16.20;53.20;;;;;;4989008;28;47960;-81
2023/03/09 11:21:53;;;;;;;5.57;3.95;;;16.20;53.10;;;;;;4954485;28;45667;-80
2023/03/09 11:24:22;;;;;;;7.10;3.92;;;16.20;53.30;;;;;;4989326;28;45179;-81
2023/03/09 11:26:56;;;;;;;6.03;3.72;;;16.20;53.60;;;;;;4989197;28;45331;-81
2023/03/09 11:29:31;;;;;;;6.97;3.63;;;16.10;53.70;;;;;;4985969;28;46393;-80
2023/03/09 11:31:59;;;;;;;8.02;4.35;;;16.00;54.00;;;;;;4989034;28;45136;-79
2023/03/09 11:34:31;;;;;;;6.07;4.07;;;15.90;54.20;;;;;;4988951;28;45228;-80
2023/03/09 11:37:02;;;;;;;6.63;3.70;;;15.90;54.30;;;;;;4989409;28;45412;-81
2023/03/09 11:39:34;;;;;;;7.25;4.20;;;15.90;54.40;;;;;;4989238;28;46756;-79
2023/03/09 11:42:06;;;;;;;6.47;4.20;;;15.90;54.40;;;;;;4987880;28;45370;-80
2023/03/09 11:44:37;;;;;;;7.30;4.53;;;15.90;54.50;;;;;;4989000;28;45153;-80
2023/03/09 11:47:06;;;;;;;7.03;4.38;;;15.90;54.50;;;;;;4989048;28;45506;-79
2023/03/09 13:22:29;;;;;;;7.03;3.90;;;16.00;55.90;;;;;;4971854;28;45422;-71
2023/03/09 13:25:31;;;;;;;6.00;2.92;;;16.00;56.30;;;;;;4961107;28;47003;-71
2023/03/09 13:28:05;;;;;;;4.82;2.92;;;16.10;55.10;;;;;;4951523;28;45442;-72
2023/03/09 13:30:35;;;;;;;4.15;2.63;;;16.20;54.90;;;;;;4967188;28;45279;-72
2023/03/09 13:33:06;;;;;;;3.95;2.60;;;16.20;54.70;;;;;;4970287;28;45230;-72
2023/03/09 13:35:37;;;;;;;4.38;2.78;;;16.30;54.70;;;;;;4967027;28;46561;-72
2023/03/09 13:38:15;;;;;;;4.03;2.90;;;16.30;55.90;;;;;;4967100;28;45284;-72
2023/03/09 13:40:51;;;;;;;6.35;2.85;;;16.30;54.60;;;;;;4967103;28;45356;-72
2023/03/09 13:43:21;;;;;;;4.55;3.10;;;16.30;54.50;;;;;;4967038;28;45475;-72
2023/03/09 13:45:58;;;;;;;4.05;2.70;;;16.30;54.60;;;;;;4966337;28;45520;-72
2023/03/09 13:48:25;;;;;;;4.38;2.90;;;16.30;54.50;;;;;;4965923;28;45301;-72
2023/03/09 13:50:52;;;;;;;4.35;2.70;;;16.30;54.60;;;;;;4966405;28;45808;-72
2023/03/09 13:53:26;;;;;;;6.65;2.97;;;16.30;54.50;;;;;;4966668;28;45413;-71
2023/03/09 13:56:00;;;;;;;5.72;3.45;;;16.40;54.60;;;;;;4965917;28;46285;-71
2023/03/09 13:58:28;;;;;;;4.63;2.83;;;16.40;54.50;;;;;;4974415;28;45217;-72
2023/03/09 14:00:56;;;;;;;4.78;2.80;;;16.40;54.60;;;;;;4973695;28;45417;-72
2023/03/09 14:03:25;;;;;;;4.93;2.78;;;16.40;54.40;;;;;;4965859;28;45427;-71
2023/03/09 14:05:57;;;;;;;3.15;2.33;;;16.40;54.60;;;;;;4958308;28;46427;-72
2023/03/09 14:08:29;;;;;;;2.90;2.50;;;16.40;54.50;;;;;;4965888;28;45278;-72
2023/03/09 14:10:56;;;;;;;4.72;2.53;;;16.40;54.60;;;;;;4966311;28;45651;-72
2023/03/09 14:13:25;;;;;;;3.28;2.30;;;16.40;54.50;;;;;;4966662;28;45423;-72
2023/03/09 14:16:02;;;;;;;5.43;3.25;;;16.40;54.60;;;;;;4966641;28;46609;-72
2023/03/09 14:18:36;;;;;;;3.95;2.83;;;16.40;54.60;;;;;;4966317;28;45360;-72
2023/03/09 14:21:03;;;;;;;3.30;2.15;;;16.40;54.60;;;;;;4966451;28;45254;-72
2023/03/09 14:23:38;;;;;;;4.55;3.00;;;16.40;54.60;;;;;;4966997;28;45311;-72
2023/03/09 14:26:06;;;;;;;3.75;2.47;;;16.40;54.80;;;;;;4958197;28;45702;-72
2023/03/09 14:28:36;;;;;;;3.85;2.45;;;16.40;55.10;;;;;;4947075;28;45280;-72
2023/03/09 14:31:18;;;;;;;4.03;2.70;;;16.30;55.20;;;;;;4960184;28;45400;-72
2023/03/09 14:33:56;;;;;;;3.17;2.30;;;16.30;55.30;;;;;;4965990;28;45260;-72
2023/03/09 14:36:23;;;;;;;3.45;2.35;;;16.30;55.30;;;;;;4965813;28;47408;-72
2023/03/09 14:38:55;;;;;;;3.83;2.13;;;16.30;55.50;;;;;;4980783;28;45312;-72
2023/03/09 14:41:23;;;;;;;4.70;2.42;;;16.30;55.40;;;;;;4965542;28;45320;-72
2023/03/09 14:43:51;;;;;;;3.33;2.30;;;16.30;55.50;;;;;;4961907;28;45321;-71
2023/03/09 14:46:19;;;;;;;2.78;2.17;;;16.30;55.30;;;;;;4965447;28;46444;-72
2023/03/09 14:48:47;;;;;;;3.60;2.45;;;16.30;55.50;;;;;;4965472;28;45200;-71
2023/03/09 14:51:18;;;;;;;3.80;2.20;;;16.30;55.40;;;;;;4965415;28;45278;-71
2023/03/09 14:53:59;;;;;;;2.92;2.17;;;16.30;55.60;;;;;;4977075;28;45268;-71
2023/03/09 14:56:28;;;;;;;2.42;1.98;;;16.30;55.40;;;;;;4968808;28;47934;-72
2023/03/09 14:58:58;;;;;;;2.70;2.10;;;16.30;55.40;;;;;;4965245;28;45988;-72
2023/03/09 15:01:26;;;;;;;3.20;2.08;;;16.30;56.60;;;;;;4965439;28;45365;-72
2023/03/09 15:03:53;;;;;;;3.03;2.20;;;16.30;55.30;;;;;;4961876;28;45439;-72
2023/03/09 15:06:22;;;;;;;3.17;2.10;;;16.30;55.50;;;;;;4965459;28;46340;-72
2023/03/09 15:08:48;;;;;;;3.03;2.20;;;16.30;55.40;;;;;;4973602;28;45337;-72
2023/03/09 15:11:17;;;;;;;2.55;1.90;;;16.30;55.30;;;;;;4965808;28;45429;-71
2023/03/09 15:13:44;;;;;;;2.70;2.00;;;16.30;55.30;;;;;;4965623;28;45414;-72
2023/03/09 15:16:12;;;;;;;2.08;1.85;;;16.40;55.30;;;;;;4965650;28;46373;-72
2023/03/09 15:18:39;;;;;;;6.78;2.25;;;16.40;55.30;;;;;;4965432;28;45347;-72
2023/03/09 15:21:06;;;;;;;2.85;2.10;;;16.40;55.40;;;;;;4966002;28;45549;-73
2023/03/09 15:23:33;;;;;;;3.60;2.13;;;16.40;55.20;;;;;;4987656;28;45538;-72
2023/03/09 15:26:03;;;;;;;3.38;2.15;;;16.40;55.40;;;;;;4985142;28;48912;-72
2023/03/09 15:28:31;;;;;;;3.42;2.17;;;16.40;55.40;;;;;;4985086;28;45206;-72
2023/03/09 15:30:59;;;;;;;2.17;1.67;;;16.40;55.40;;;;;;4984921;28;45286;-72
2023/03/09 15:33:27;;;;;;;3.67;1.90;;;16.40;55.50;;;;;;4987433;28;45335;-72
2023/03/09 15:35:54;;;;;;;2.28;1.88;;;16.40;56.50;;;;;;4988022;28;48268;-72
2023/03/09 15:38:21;;;;;;;2.38;1.90;;;16.40;55.50;;;;;;4988522;28;45328;-72
2023/03/09 15:40:48;;;;;;;1.85;1.67;;;16.40;55.50;;;;;;4988688;28;45224;-72
2023/03/09 15:43:15;;;;;;;2.70;1.90;;;16.40;55.50;;;;;;4988987;28;45568;-72
2023/03/09 15:45:44;;;;;;;2.72;1.75;;;16.40;55.50;;;;;;4988483;28;45265;-72
2023/03/09 15:48:11;;;;;;;2.45;1.90;;;16.40;55.50;;;;;;4988403;28;45244;-72
2023/03/09 15:50:38;;;;;;;2.45;1.85;;;16.50;55.70;;;;;;4988324;28;45395;-72
2023/03/09 15:53:06;;;;;;;2.15;1.63;;;16.40;55.60;;;;;;4988503;28;45531;-72
2023/03/09 15:55:33;;;;;;;2.58;1.80;;;16.40;55.80;;;;;;4987948;28;45186;-72
2023/03/09 15:58:00;;;;;;;3.42;2.20;;;16.40;55.80;;;;;;4987795;28;45211;-72
2023/03/09 16:00:29;;;;;;;2.47;1.80;;;16.40;56.00;;;;;;4996082;28;45299;-72
2023/03/09 16:03:00;;;;;;;2.05;1.70;;;16.40;55.80;;;;;;5003641;28;45259;-72
2023/03/09 16:05:28;;;;;;;3.13;2.10;;;16.40;55.90;;;;;;4988414;28;47007;-72
2023/03/09 16:07:54;;;;;;;3.63;1.80;;;16.40;55.90;;;;;;4988078;28;45381;-72
2023/03/09 16:10:21;;;;;;;2.35;1.80;;;16.40;56.00;;;;;;4988419;28;45279;-72
2023/03/09 16:12:48;;;;;;;2.28;1.60;;;16.40;56.10;;;;;;4988322;28;45251;-72
2023/03/09 16:15:15;;;;;;;2.85;1.98;;;16.40;56.30;;;;;;4987745;28;46948;-72
2023/03/09 16:17:44;;;;;;;2.05;1.73;;;16.40;56.10;;;;;;4987616;28;45372;-72
2023/03/09 16:20:15;;;;;;;2.58;1.98;;;16.40;56.40;;;;;;4995066;28;45256;-72
2023/03/09 16:22:44;;;;;;;4.03;2.05;;;16.40;57.40;;;;;;4987255;28;45378;-73
2023/03/09 16:25:11;;;;;;;3.05;2.17;;;16.40;57.10;;;;;;4992547;28;48333;-72
2023/03/09 16:27:38;;;;;;;2.47;1.95;;;16.40;57.00;;;;;;4988599;28;45282;-72
2023/03/09 16:30:06;;;;;;;2.22;1.80;;;16.40;56.70;;;;;;4987874;28;45294;-72
2023/03/09 16:32:33;;;;;;;4.15;1.90;;;16.40;56.70;;;;;;4987986;28;45578;-72
2023/03/09 16:35:03;;;;;;;2.50;1.80;;;16.40;57.00;;;;;;4987780;28;47711;-73
2023/03/09 16:37:31;;;;;;;2.33;1.55;;;16.40;57.00;;;;;;4987796;28;45179;-72
2023/03/09 16:39:59;;;;;;;2.28;1.52;;;16.40;56.80;;;;;;4987972;28;45242;-73
2023/03/09 16:42:26;;;;;;;2.65;1.63;;;16.40;57.00;;;;;;4987616;28;45617;-72
2023/03/09 16:44:54;;;;;;;2.20;1.45;;;16.40;56.90;;;;;;4987141;28;47552;-72
2023/03/09 16:47:21;;;;;;;2.10;1.58;;;16.40;56.90;;;;;;4986584;28;45613;-72
2023/03/09 16:49:48;;;;;;;2.97;1.75;;;16.40;57.20;;;;;;4987533;28;45425;-72
2023/03/09 16:52:15;;;;;;;3.00;1.80;;;16.40;57.30;;;;;;4987389;28;45130;-72
2023/03/09 16:54:43;;;;;;;2.50;1.42;;;16.40;57.20;;;;;;4988784;28;47918;-72
2023/03/09 16:57:10;;;;;;;2.17;1.50;;;16.40;57.50;;;;;;4995676;28;45409;-72
2023/03/09 16:59:36;;;;;;;1.95;1.40;;;16.40;57.60;;;;;;4988152;28;45266;-72
2023/03/09 17:02:03;;;;;;;2.30;1.40;;;16.40;57.90;;;;;;4987421;28;45251;-72
2023/03/09 17:04:30;;;;;;;2.95;1.70;;;16.40;57.90;;;;;;4986416;28;47109;-68
2023/03/09 17:06:57;;;;;;;3.17;1.60;;;16.40;57.90;;;;;;4987847;28;45548;-74
2023/03/09 17:09:24;;;;;;;2.50;1.50;;;16.40;58.80;;;;;;4987678;28;45168;-74
2023/03/09 17:11:52;;;;;;;4.60;1.60;;;16.30;59.80;;;;;;4987463;28;45416;-74
2023/03/09 17:14:19;;;;;;;2.70;1.38;;;16.30;60.30;;;;;;4987313;28;45537;-74
2023/03/09 17:16:46;;;;;;;4.70;1.55;;;16.20;60.60;;;;;;4976161;28;45292;-68
2023/03/09 17:19:13;;;;;;;2.95;1.45;;;16.30;59.70;;;;;;4987701;28;45314;-69
2023/03/09 17:21:39;;;;;;;6.50;1.50;;;16.40;58.80;;;;;;4975823;28;45652;-69
2023/03/09 17:24:06;;;;;;;5.75;1.48;;;16.50;60.00;;;;;;4986074;28;48174;-68
2023/03/09 17:26:34;;;;;;;2.42;1.50;;;16.50;59.80;;;;;;4999562;28;45332;-67
2023/03/09 17:29:02;;;;;;;3.95;1.35;;;16.50;59.80;;;;;;4967575;28;45269;-71
2023/03/09 17:31:29;;;;;;;2.17;1.30;;;16.40;60.30;;;;;;4967667;28;45223;-71
2023/03/09 17:33:57;;;;;;;2.78;0.85;;;16.40;60.80;;;;;;4967581;28;45389;-71
2023/03/09 17:36:25;;;;;;;4.88;1.17;;;16.30;60.80;;;;;;4967738;28;45217;-71
2023/03/09 17:38:53;;;;;;;3.13;0.98;;;16.30;61.10;;;;;;4967567;28;45276;-71
2023/03/09 17:41:21;;;;;;;2.42;1.25;;;16.30;61.60;;;;;;4968095;28;45552;-71
2023/03/09 17:43:48;;;;;;;1.77;0.77;;;16.20;62.00;;;;;;4967212;28;47562;-70
2023/03/09 17:46:17;;;;;;;1.48;0.80;;;16.20;62.40;;;;;;4967196;28;45161;-71
2023/03/09 17:48:45;;;;;;;2.60;0.93;;;16.20;62.70;;;;;;4967561;28;45161;-71
2023/03/09 17:51:15;;;;;;;2.25;0.65;;;16.20;62.90;;;;;;4967289;28;45423;-71
2023/03/09 17:53:42;;;;;;;1.60;0.80;;;16.20;62.90;;;;;;4966990;28;45501;-72
2023/03/09 17:56:09;;;;;;;2.92;0.88;;;16.20;62.80;;;;;;4966420;28;45926;-71
2023/03/09 17:58:36;;;;;;;1.52;0.70;;;16.20;62.50;;;;;;4967619;28;45237;-71
2023/03/09 18:01:10;;;;;;;2.45;0.93;;;16.20;62.50;;;;;;4967427;28;45280;-71
2023/03/09 18:03:38;;;;;;;2.35;0.75;;;16.20;62.50;;;;;;4967015;28;46819;-71
2023/03/09 18:06:06;;;;;;;1.05;0.70;;;16.20;62.20;;;;;;4967396;28;45172;-71
2023/03/09 18:08:33;;;;;;;2.03;0.90;;;16.20;62.40;;;;;;4967072;28;45228;-71
2023/03/09 18:11:00;;;;;;;3.53;1.20;;;16.20;62.40;;;;;;4967355;28;45435;-71
2023/03/09 18:13:27;;;;;;;1.77;0.80;;;16.20;62.40;;;;;;4966845;28;45695;-71
2023/03/09 18:15:54;;;;;;;0.90;0.63;;;16.20;62.30;;;;;;4970682;28;45161;-70
2023/03/09 18:18:20;;;;;;;1.10;0.73;;;16.20;62.40;;;;;;4986080;28;45210;-70
2023/03/09 18:20:49;;;;;;;1.52;0.73;;;16.20;63.00;;;;;;4985973;28;45605;-70
2023/03/09 18:23:15;;;;;;;1.25;0.60;;;16.20;63.50;;;;;;4985017;28;47968;-70
2023/03/09 18:25:42;;;;;;;2.17;0.68;;;16.20;63.70;;;;;;4985818;28;45391;-70
2023/03/09 18:28:10;;;;;;;1.05;0.65;;;16.20;63.50;;;;;;4986546;28;45162;-71
2023/03/09 18:30:37;;;;;;;3.20;1.10;;;16.10;62.80;;;;;;4986608;28;45592;-71
2023/03/09 18:33:04;;;;;;;1.27;0.55;;;16.10;62.30;;;;;;4986019;28;46567;-71
2023/03/09 18:35:30;;;;;;;1.30;0.80;;;16.10;62.20;;;;;;4986368;28;45235;-71
2023/03/09 18:37:59;;;;;;;2.08;0.63;;;16.10;62.00;;;;;;4986164;28;45215;-71
2023/03/09 18:40:26;;;;;;;1.80;0.80;;;16.00;61.70;;;;;;5002564;28;45127;-70
2023/03/09 18:42:53;;;;;;;2.05;0.60;;;16.00;61.50;;;;;;5002176;28;45688;-71
2023/03/09 18:45:20;;;;;;;1.95;0.80;;;16.00;61.50;;;;;;4985864;28;45231;-71
2023/03/09 18:47:47;;;;;;;1.85;0.73;;;16.00;61.50;;;;;;4986103;28;45363;-71
2023/03/09 18:50:14;;;;;;;0.85;0.60;;;16.00;61.50;;;;;;4986002;28;45222;-71
2023/03/09 18:52:41;;;;;;;2.67;0.85;;;16.00;61.50;;;;;;4985802;28;46599;-71
2023/03/09 18:55:10;;;;;;;1.75;0.60;;;16.00;61.20;;;;;;4985939;28;45106;-71
2023/03/09 18:57:37;;;;;;;2.42;1.00;;;16.00;61.20;;;;;;4985839;28;45200;-71
2023/03/09 19:00:05;;;;;;;1.83;0.73;;;16.00;61.00;;;;;;4985906;28;45154;-71
2023/03/09 19:02:32;;;;;;;1.65;0.80;;;16.00;60.80;;;;;;4985578;28;45185;-71
2023/03/09 19:04:59;;;;;;;1.80;0.80;;;16.10;61.20;;;;;;4988496;28;45275;-71
2023/03/09 19:07:26;;;;;;;2.22;0.75;;;16.10;61.20;;;;;;4987843;28;45196;-71
2023/03/09 19:09:53;;;;;;;1.75;0.80;;;16.10;61.60;;;;;;4989495;28;45149;-71
2023/03/09 19:12:21;;;;;;;1.40;0.65;;;16.10;61.60;;;;;;4988982;28;46288;-71
2023/03/09 19:14:51;;;;;;;3.40;0.70;;;16.20;61.70;;;;;;4989136;28;45125;-71
2023/03/09 19:17:18;;;;;;;2.45;0.70;;;16.20;62.10;;;;;;4989587;28;45267;-71
2023/03/09 19:19:45;;;;;;;1.85;0.75;;;16.20;62.00;;;;;;4989188;28;45414;-71
2023/03/09 19:22:12;;;;;;;2.22;0.73;;;16.20;62.10;;;;;;4988927;28;46860;-71
2023/03/09 19:24:38;;;;;;;2.03;0.93;;;16.20;62.10;;;;;;4989218;28;45096;-71
2023/03/09 19:27:05;;;;;;;2.45;0.80;;;16.20;62.00;;;;;;4989035;28;45228;-71
2023/03/09 19:29:34;;;;;;;1.77;0.80;;;16.20;62.10;;;;;;4989052;28;45572;-71
2023/03/09 19:32:01;;;;;;;1.17;0.50;;;16.10;62.00;;;;;;4988865;28;47549;-71
2023/03/09 19:34:28;;;;;;;1.20;0.75;;;16.10;62.10;;;;;;4988871;28;45192;-71
2023/03/09 19:36:55;;;;;;;1.67;0.60;;;16.20;62.20;;;;;;4989241;28;45251;-71
2023/03/09 19:39:22;;;;;;;1.50;0.57;;;16.20;62.20;;;;;;4987929;28;45426;-71
2023/03/09 19:41:49;;;;;;;2.80;0.60;;;16.10;62.20;;;;;;4988589;28;45280;-71
2023/03/09 19:44:17;;;;;;;2.03;0.73;;;16.10;62.20;;;;;;4988877;28;45315;-71
2023/03/09 19:46:45;;;;;;;1.05;0.60;;;16.10;62.30;;;;;;4989110;28;45147;-71
2023/03/09 19:49:12;;;;;;;2.38;0.80;;;16.10;62.50;;;;;;4988732;28;45632;-71
2023/03/09 19:51:39;;;;;;;3.13;0.70;;;16.20;62.50;;;;;;4988495;28;46605;-71
2023/03/09 19:54:07;;;;;;;1.63;0.50;;;16.20;62.40;;;;;;4988781;28;45279;-71
2023/03/09 19:56:38;;;;;;;1.90;0.70;;;16.20;62.50;;;;;;4989173;28;45141;-71
2023/03/09 19:59:06;;;;;;;1.60;0.47;;;16.20;62.50;;;;;;4988754;28;45373;-71
2023/03/09 20:01:34;;;;;;;2.75;0.60;;;16.20;62.60;;;;;;4988429;28;46864;-71
2023/03/09 20:04:04;;;;;;;1.75;0.43;;;16.20;62.70;;;;;;4988345;28;45213;-71
2023/03/09 20:06:35;;;;;;;2.05;0.43;;;16.20;62.70;;;;;;4988734;28;45146;-71
2023/03/09 20:09:02;;;;;;;3.05;0.75;;;16.20;62.80;;;;;;4988422;28;45166;-71
2023/03/09 20:11:28;;;;;;;2.00;0.60;;;16.30;62.90;;;;;;4988307;28;45230;-71
2023/03/09 20:13:57;;;;;;;1.15;0.40;;;16.30;62.90;;;;;;4988244;28;45322;-71
2023/03/09 20:16:25;;;;;;;2.22;0.70;;;16.30;62.90;;;;;;4988369;28;45270;-71
2023/03/09 20:18:52;;;;;;;0.85;0.40;;;16.30;62.90;;;;;;4987801;28;45684;-71
2023/03/09 20:21:21;;;;;;;1.02;0.57;;;16.20;62.60;;;;;;4987616;28;46285;-72
2023/03/09 20:23:48;;;;;;;2.03;0.80;;;16.30;62.80;;;;;;4985342;28;45260;-71
2023/03/09 20:26:17;;;;;;;1.27;0.40;;;16.20;62.70;;;;;;4988204;28;45343;-71
2023/03/09 20:28:45;;;;;;;1.70;0.68;;;16.20;63.00;;;;;;4988171;28;45470;-71
2023/03/09 20:31:14;;;;;;;3.15;0.70;;;16.20;62.90;;;;;;4987687;28;46524;-72
2023/03/09 20:33:42;;;;;;;3.40;0.60;;;16.20;63.00;;;;;;4987840;28;45174;-71
2023/03/09 20:36:09;;;;;;;0.98;0.50;;;16.20;62.90;;;;;;4988147;28;45189;-71
2023/03/09 20:38:38;;;;;;;0.90;0.40;;;16.20;63.10;;;;;;4988131;28;45227;-71
2023/03/09 20:41:07;;;;;;;2.30;0.60;;;16.20;63.20;;;;;;4987640;28;47544;-71
2023/03/09 20:43:34;;;;;;;2.05;0.50;;;16.20;63.30;;;;;;4987561;28;45417;-71
2023/03/09 20:46:03;;;;;;;1.55;0.30;;;16.20;63.10;;;;;;4988065;28;45098;-71
2023/03/09 20:48:30;;;;;;;2.50;0.60;;;16.20;63.20;;;;;;4987979;28;45231;-71
2023/03/09 20:50:57;;;;;;;1.75;0.50;;;16.20;63.10;;;;;;4987546;28;47013;-71
2023/03/09 20:53:25;;;;;;;0.88;0.52;;;16.20;63.20;;;;;;4987533;28;45276;-71
2023/03/09 20:55:53;;;;;;;1.40;0.50;;;16.30;63.40;;;;;;4990093;28;45137;-71
2023/03/09 20:58:20;;;;;;;3.20;0.60;;;16.20;63.50;;;;;;4988322;28;45112;-71
2023/03/09 21:00:47;;;;;;;1.77;0.50;;;16.30;63.60;;;;;;4986999;28;48216;-71
2023/03/09 21:03:14;;;;;;;2.10;0.70;;;16.20;63.40;;;;;;4987192;28;45400;-71
2023/03/09 21:05:41;;;;;;;0.65;0.30;;;16.20;63.70;;;;;;4987395;28;45192;-71
2023/03/09 21:08:09;;;;;;;1.73;0.40;;;16.20;63.60;;;;;;4987527;28;45572;-71
2023/03/09 21:10:40;;;;;;;0.63;0.32;;;16.30;63.80;;;;;;4987407;28;47022;-71
2023/03/09 21:13:08;;;;;;;1.05;0.50;;;16.30;63.80;;;;;;4987576;28;45092;-71
2023/03/09 21:15:40;;;;;;;1.00;0.35;;;16.30;63.70;;;;;;4987109;28;45226;-71
2023/03/09 21:18:06;;;;;;;1.67;0.50;;;16.30;63.70;;;;;;4987050;28;45503;-70
2023/03/09 21:20:33;;;;;;;0.20;0.20;;;16.20;63.60;;;;;;4986903;28;46314;-71
2023/03/09 21:23:00;;;;;;;1.55;0.60;;;16.20;63.30;;;;;;4986911;28;45322;-71
2023/03/09 21:25:27;;;;;;;2.20;0.40;;;16.20;63.50;;;;;;4987099;28;45209;-71
2023/03/09 21:27:54;;;;;;;2.42;0.40;;;16.10;63.60;;;;;;4987492;28;45207;-71
2023/03/09 21:30:22;;;;;;;2.35;0.52;;;16.10;63.80;;;;;;4986035;28;45441;-71
2023/03/09 21:32:50;;;;;;;1.85;0.60;;;16.10;63.90;;;;;;4987089;28;45309;-71
2023/03/09 21:35:18;;;;;;;0.60;0.40;;;16.10;64.00;;;;;;4987300;28;45182;-71
2023/03/09 21:37:45;;;;;;;1.08;0.52;;;16.10;64.10;;;;;;4987206;28;45326;-71
2023/03/09 21:40:13;;;;;;;0.75;0.32;;;16.10;64.20;;;;;;4986929;28;46251;-71
2023/03/09 21:42:40;;;;;;;5.70;0.80;;;16.10;64.00;;;;;;4987083;28;45174;-71
2023/03/09 21:45:09;;;;;;;0.93;0.40;;;16.10;63.90;;;;;;4987034;28;45212;-71
2023/03/09 21:47:37;;;;;;;3.00;0.65;;;16.10;64.00;;;;;;4986866;28;45502;-71
2023/03/09 21:50:05;;;;;;;1.45;0.40;;;16.10;64.00;;;;;;4986490;28;45444;-70
2023/03/09 21:52:32;;;;;;;1.58;0.50;;;16.10;64.10;;;;;;4987032;28;45074;-71
2023/03/09 21:54:59;;;;;;;1.50;0.68;;;16.10;64.00;;;;;;4986987;28;45244;-71
2023/03/09 21:57:25;;;;;;;2.13;0.40;;;16.10;64.10;;;;;;4986652;28;45473;-71
2023/03/09 21:59:52;;;;;;;2.35;0.70;;;16.10;64.00;;;;;;4986617;28;45314;-71
2023/03/09 22:02:21;;;;;;;1.75;0.65;;;16.10;64.20;;;;;;4986508;28;45167;-71
2023/03/09 22:04:49;;;;;;;1.30;0.52;;;16.10;64.10;;;;;;4986886;28;45321;-71
2023/03/09 22:07:16;;;;;;;1.10;0.50;;;16.20;64.10;;;;;;4986914;28;45150;-71
2023/03/09 22:09:43;;;;;;;1.30;0.60;;;16.20;64.10;;;;;;4986250;28;46526;-71
2023/03/09 22:12:10;;;;;;;1.65;0.52;;;16.10;64.10;;;;;;4986522;28;45121;-71
2023/03/09 22:14:37;;;;;;;1.13;0.40;;;16.10;64.10;;;;;;4986799;28;45254;-71
2023/03/09 22:17:04;;;;;;;1.27;0.40;;;16.10;64.20;;;;;;4986563;28;45207;-71
2023/03/09 22:19:31;;;;;;;1.23;0.40;;;16.10;64.20;;;;;;4986424;28;47851;-71
2023/03/09 22:21:59;;;;;;;0.60;0.38;;;16.10;64.30;;;;;;4986144;28;45122;-71
2023/03/09 22:24:26;;;;;;;0.32;0.32;;;16.10;64.60;;;;;;4986305;28;45145;-71
2023/03/09 22:26:53;;;;;;;1.85;0.30;;;16.10;64.40;;;;;;4986416;28;45193;-71
2023/03/09 22:29:20;;;;;;;0.52;0.35;;;16.10;64.70;;;;;;4986126;28;47519;-71
2023/03/09 22:31:47;;;;;;;1.30;0.65;;;16.10;64.60;;;;;;4986735;28;45359;-71
2023/03/09 22:34:13;;;;;;;1.95;0.45;;;16.10;64.70;;;;;;4986464;28;45129;-71
2023/03/09 22:36:40;;;;;;;1.13;0.50;;;16.10;64.60;;;;;;4986637;28;45291;-71
2023/03/09 22:39:12;;;;;;;1.00;0.50;;;16.10;64.70;;;;;;4986628;28;47126;-71
2023/03/09 22:41:39;;;;;;;1.35;0.63;;;16.10;64.50;;;;;;4987773;28;45373;-71
2023/03/09 22:44:06;;;;;;;1.00;0.32;;;16.20;64.60;;;;;;4989974;28;45211;-71
2023/03/09 22:46:33;;;;;;;0.70;0.30;;;16.20;64.90;;;;;;4993466;28;45692;-71
2023/03/09 22:49:00;;;;;;;0.93;0.40;;;16.20;64.60;;;;;;4989657;28;45420;-71
2023/03/09 22:51:28;;;;;;;0.60;0.30;;;16.20;64.60;;;;;;4989412;28;45277;-71
2023/03/09 22:53:56;;;;;;;0.50;0.30;;;16.20;64.80;;;;;;4989867;28;45273;-71
2023/03/09 22:56:25;;;;;;;0.82;0.40;;;16.20;64.90;;;;;;4989650;28;45176;-71
2023/03/09 22:58:52;;;;;;;1.48;0.22;;;16.20;65.00;;;;;;4989529;28;46591;-71
2023/03/09 23:01:22;;;;;;;0.85;0.30;;;16.20;65.00;;;;;;4989643;28;45109;-71
2023/03/09 23:03:51;;;;;;;0.20;0.20;;;16.20;64.90;;;;;;4989643;28;45322;-71
2023/03/09 23:06:19;;;;;;;0.40;0.25;;;16.20;65.20;;;;;;4989376;28;45489;-71
2023/03/09 23:08:46;;;;;;;0.90;0.30;;;16.20;65.20;;;;;;4989056;28;46376;-71
2023/03/09 23:11:18;;;;;;;0.80;0.32;;;16.30;65.20;;;;;;4989304;28;45414;-71
2023/03/09 23:13:46;;;;;;;0.32;0.20;;;16.20;64.80;;;;;;4989586;28;45085;-71
2023/03/09 23:16:13;;;;;;;1.05;0.38;;;16.20;64.80;;;;;;4989375;28;45188;-71
2023/03/09 23:18:40;;;;;;;1.05;0.20;;;16.20;65.00;;;;;;4988900;28;46624;-71
2023/03/09 23:21:08;;;;;;;0.20;0.20;;;16.20;64.90;;;;;;4988788;28;45247;-72
2023/03/09 23:23:35;;;;;;;0.40;0.22;;;16.20;65.00;;;;;;4989127;28;45135;-71
2023/03/09 23:26:02;;;;;;;0.40;0.20;;;16.20;65.00;;;;;;4995493;28;45195;-71
2023/03/09 23:28:29;;;;;;;0.82;0.30;;;16.20;65.00;;;;;;4988797;28;46608;-71
2023/03/09 23:30:58;;;;;;;1.20;0.30;;;16.20;64.90;;;;;;4989071;28;45373;-71
2023/03/09 23:33:24;;;;;;;0.90;0.30;;;16.20;64.90;;;;;;4989043;28;45116;-71
2023/03/09 23:35:51;;;;;;;0.75;0.30;;;16.20;65.90;;;;;;4989034;28;45207;-71
2023/03/09 23:38:19;;;;;;;1.17;0.30;;;16.20;64.90;;;;;;4988596;28;46670;-71
2023/03/09 23:40:46;;;;;;;0.80;0.20;;;16.20;64.80;;;;;;4991050;28;45349;-71
2023/03/09 23:43:13;;;;;;;0.65;0.22;;;16.20;64.90;;;;;;4989117;28;45137;-71
2023/03/09 23:45:41;;;;;;;0.80;0.15;;;16.20;64.90;;;;;;4989065;28;45228;-71
2023/03/09 23:48:09;;;;;;;0.32;0.20;;;16.20;64.90;;;;;;4988560;28;45253;-71
2023/03/09 23:50:38;;;;;;;0.28;0.15;;;16.20;65.00;;;;;;4989088;28;45213;-70
2023/03/09 23:53:05;;;;;;;0.20;0.20;;;16.20;65.00;;;;;;4988064;28;45215;-71
2023/03/09 23:55:32;;;;;;;0.30;0.10;;;16.20;65.00;;;;;;4988918;28;45224;-71
2023/03/09 23:57:58;;;;;;;0.43;0.10;;;16.30;65.30;;;;;;4988284;28;48696;-71
